createdAt,value
2023-06-29T00:00:13.830Z,18.73
2023-06-29T00:03:16.095Z,18.73
2023-06-29T00:06:17.966Z,18.63
2023-06-29T00:09:20.516Z,18.56
2023-06-29T00:12:22.114Z,18.53
2023-06-29T00:15:23.783Z,18.52
2023-06-29T00:18:27.817Z,18.51
2023-06-29T00:21:29.591Z,18.44
2023-06-29T00:24:31.390Z,18.30
2023-06-29T00:27:33.158Z,18.16
2023-06-29T00:30:34.793Z,18.19
2023-06-29T00:33:37.327Z,18.16
2023-06-29T00:36:38.993Z,18.23
2023-06-29T00:39:40.703Z,18.27
2023-06-29T00:42:42.434Z,18.20
2023-06-29T00:45:44.453Z,18.22
2023-06-29T00:48:46.292Z,18.22
2023-06-29T00:51:51.474Z,18.23
2023-06-29T00:54:56.020Z,18.24
2023-06-29T00:57:57.689Z,18.19
2023-06-29T01:00:59.379Z,18.21
2023-06-29T01:04:01.368Z,18.19
2023-06-29T01:07:10.879Z,18.13
2023-06-29T01:10:14.543Z,18.14
2023-06-29T01:13:18.610Z,18.20
2023-06-29T01:16:21.460Z,18.24
2023-06-29T01:19:26.818Z,18.23
2023-06-29T01:22:30.965Z,18.23
2023-06-29T01:25:34.971Z,18.21
2023-06-29T01:28:36.637Z,18.17
2023-06-29T01:31:38.397Z,18.17
2023-06-29T01:34:40.150Z,18.17
2023-06-29T01:37:48.054Z,18.14
2023-06-29T01:40:50.600Z,18.13
2023-06-29T01:43:53.002Z,18.17
2023-06-29T01:46:55.749Z,18.15
2023-06-29T01:49:57.693Z,18.18
2023-06-29T01:52:59.637Z,18.11
2023-06-29T01:56:01.288Z,18.11
2023-06-29T01:59:03.002Z,18.09
2023-06-29T02:02:04.818Z,18.11
2023-06-29T02:05:07.109Z,18.11
2023-06-29T02:08:08.838Z,18.10
2023-06-29T02:11:10.670Z,17.96
2023-06-29T02:14:12.305Z,17.88
2023-06-29T02:17:13.994Z,17.84
2023-06-29T02:20:15.712Z,17.75
2023-06-29T02:23:17.638Z,17.73
2023-06-29T02:26:19.290Z,17.72
2023-06-29T02:29:22.069Z,17.73
2023-06-29T02:32:23.757Z,17.69
2023-06-29T02:35:25.474Z,17.66
2023-06-29T02:38:27.160Z,17.70
2023-06-29T02:41:28.955Z,17.72
2023-06-29T02:44:30.606Z,17.58
2023-06-29T02:47:32.584Z,17.43
2023-06-29T02:50:34.294Z,17.34
2023-06-29T02:53:35.964Z,17.37
2023-06-29T02:56:37.782Z,17.42
2023-06-29T02:59:39.636Z,17.42
2023-06-29T03:02:41.811Z,17.43
2023-06-29T03:05:43.626Z,17.38
2023-06-29T03:08:45.789Z,17.38
2023-06-29T03:11:47.626Z,17.34
2023-06-29T03:14:49.311Z,17.36
2023-06-29T03:17:51.007Z,17.27
2023-06-29T03:20:52.684Z,17.27
2023-06-29T03:23:54.751Z,17.27
2023-06-29T03:26:56.458Z,17.07
2023-06-29T03:29:58.124Z,17.06
2023-06-29T03:32:59.847Z,17.08
2023-06-29T03:36:01.564Z,17.19
2023-06-29T03:39:03.365Z,17.25
2023-06-29T03:42:05.471Z,17.27
2023-06-29T03:45:07.916Z,17.36
2023-06-29T03:48:09.637Z,17.41
2023-06-29T03:51:11.477Z,17.48
2023-06-29T03:54:13.229Z,17.52
2023-06-29T03:57:14.863Z,17.59
2023-06-29T04:00:16.884Z,17.69
2023-06-29T04:03:18.651Z,17.82
2023-06-29T04:06:20.530Z,17.93
2023-06-29T04:09:22.210Z,18.03
2023-06-29T04:12:24.339Z,18.14
2023-06-29T04:15:26.211Z,18.27
2023-06-29T04:18:27.911Z,18.37
2023-06-29T04:21:29.658Z,18.50
2023-06-29T04:24:31.283Z,18.61
2023-06-29T04:27:34.100Z,18.61
2023-06-29T04:30:36.306Z,18.68
2023-06-29T04:33:38.193Z,18.73
2023-06-29T04:36:39.845Z,18.72
2023-06-29T04:39:41.508Z,18.76
2023-06-29T04:42:43.290Z,18.88
2023-06-29T04:45:45.195Z,18.87
2023-06-29T04:48:47.038Z,18.94
2023-06-29T04:51:49.083Z,19.01
2023-06-29T04:54:50.751Z,19.08
2023-06-29T04:57:53.364Z,19.17
2023-06-29T05:00:55.866Z,19.31
2023-06-29T05:03:59.278Z,19.34
2023-06-29T05:07:02.335Z,19.44
2023-06-29T05:10:04.459Z,19.46
2023-06-29T05:13:06.730Z,19.58
2023-06-29T05:16:08.489Z,19.61
2023-06-29T05:19:10.164Z,19.69
2023-06-29T05:22:12.693Z,19.82
2023-06-29T05:25:14.423Z,19.83
2023-06-29T05:28:16.260Z,19.85
2023-06-29T05:31:17.941Z,19.82
2023-06-29T05:34:19.674Z,19.88
2023-06-29T05:37:21.870Z,20.08
2023-06-29T05:40:23.633Z,20.20
2023-06-29T05:43:25.519Z,20.31
2023-06-29T05:46:27.227Z,20.39
2023-06-29T05:49:29.202Z,20.49
2023-06-29T05:52:30.881Z,20.53
2023-06-29T05:55:32.673Z,20.61
2023-06-29T05:58:34.428Z,20.70
2023-06-29T06:01:36.135Z,20.79
2023-06-29T06:04:37.901Z,20.86
2023-06-29T06:07:39.938Z,20.93
2023-06-29T06:10:41.946Z,21.06
2023-06-29T06:13:43.894Z,21.14
2023-06-29T06:16:48.130Z,21.23
2023-06-29T06:19:52.389Z,21.35
2023-06-29T06:22:54.181Z,21.35
2023-06-29T06:25:57.082Z,21.47
2023-06-29T06:28:59.075Z,21.60
2023-06-29T06:32:01.115Z,21.69
2023-06-29T06:35:03.168Z,21.71
2023-06-29T06:38:06.798Z,21.86
2023-06-29T06:41:08.780Z,22.10
2023-06-29T06:44:11.107Z,22.29
2023-06-29T06:47:13.676Z,22.35
2023-06-29T06:50:17.719Z,22.46
2023-06-29T06:53:19.382Z,22.56
2023-06-29T06:56:21.955Z,22.47
2023-06-29T06:59:23.718Z,22.42
2023-06-29T07:02:25.633Z,22.48
2023-06-29T07:05:27.632Z,22.59
2023-06-29T07:08:29.307Z,22.61
2023-06-29T07:11:31.198Z,22.61
2023-06-29T07:14:35.298Z,22.72
2023-06-29T07:17:37.854Z,22.41
2023-06-29T07:27:04.590Z,22.96
2023-06-29T07:30:19.105Z,23.13
2023-06-29T07:33:23.079Z,23.22
2023-06-29T07:36:26.482Z,23.13
2023-06-29T07:39:28.494Z,23.07
2023-06-29T07:42:39.628Z,23.25
2023-06-29T07:45:42.529Z,23.39
2023-06-29T07:48:44.960Z,23.56
2023-06-29T07:51:46.802Z,23.76
2023-06-29T07:54:48.523Z,24.43
2023-06-29T08:01:09.373Z,30.57
2023-06-29T08:04:11.379Z,32.32
2023-06-29T08:07:13.271Z,33.33
2023-06-29T08:10:16.691Z,34.38
2023-06-29T08:13:29.277Z,35.10
2023-06-29T08:16:32.009Z,35.83
2023-06-29T08:19:33.762Z,36.06
2023-06-29T08:22:49.660Z,36.14
2023-06-29T08:25:51.359Z,36.83
2023-06-29T08:28:53.200Z,37.19
2023-06-29T08:31:55.005Z,36.14
2023-06-29T08:34:57.342Z,36.61
2023-06-29T08:38:00.257Z,35.56
2023-06-29T08:41:05.226Z,36.40
2023-06-29T08:44:06.944Z,36.73
2023-06-29T08:47:09.358Z,36.86
2023-06-29T08:50:11.878Z,37.95
2023-06-29T08:53:14.490Z,37.97
2023-06-29T08:56:17.394Z,38.65
2023-06-29T08:59:20.303Z,38.57
2023-06-29T09:02:22.280Z,38.66
2023-06-29T09:05:24.483Z,32.31
2023-06-29T09:08:27.017Z,31.20
2023-06-29T09:11:28.814Z,30.04
2023-06-29T09:14:31.447Z,29.94
2023-06-29T09:17:33.440Z,27.96
2023-06-29T09:20:36.968Z,27.59
2023-06-29T09:23:43.762Z,32.57
2023-06-29T09:26:51.808Z,34.35
2023-06-29T09:29:54.406Z,35.97
2023-06-29T09:32:56.435Z,34.89
2023-06-29T09:36:07.168Z,33.64
2023-06-29T09:39:12.258Z,33.41
2023-06-29T09:42:15.348Z,34.74
2023-06-29T09:45:24.854Z,33.07
2023-06-29T09:51:34.206Z,34.67
2023-06-29T09:54:36.265Z,31.99
2023-06-29T09:57:41.480Z,34.82
2023-06-29T10:00:45.011Z,31.86
2023-06-29T10:03:46.885Z,34.50
2023-06-29T10:07:06.654Z,34.40
2023-06-29T10:10:12.002Z,32.19
2023-06-29T10:13:17.547Z,30.05
2023-06-29T10:16:21.736Z,29.23
2023-06-29T10:19:27.252Z,31.13
2023-06-29T10:22:30.235Z,33.33
2023-06-29T10:25:35.096Z,30.43
2023-06-29T10:28:38.066Z,29.11
2023-06-29T10:31:48.613Z,28.32
2023-06-29T10:35:01.164Z,27.76
2023-06-29T10:38:11.056Z,27.21
2023-06-29T10:41:29.891Z,26.72
2023-06-29T10:44:35.321Z,26.79
2023-06-29T10:47:37.038Z,27.04
2023-06-29T10:50:42.092Z,27.63
2023-06-29T10:53:49.578Z,27.19
2023-06-29T10:57:01.695Z,29.26
2023-06-29T11:00:04.630Z,27.35
2023-06-29T11:03:07.368Z,27.42
2023-06-29T11:06:09.157Z,29.98
2023-06-29T11:09:12.783Z,29.44
2023-06-29T11:12:17.650Z,28.00
2023-06-29T11:15:21.055Z,27.41
2023-06-29T11:18:23.929Z,27.03
2023-06-29T11:21:26.966Z,26.94
2023-06-29T11:24:28.667Z,26.72
2023-06-29T11:27:30.445Z,26.59
2023-06-29T11:30:32.330Z,26.70
2023-06-29T11:40:01.503Z,27.33
2023-06-29T11:43:03.274Z,27.10
2023-06-29T11:46:05.430Z,27.74
2023-06-29T11:49:07.380Z,27.68
2023-06-29T11:52:09.366Z,27.60
2023-06-29T11:55:13.955Z,27.38
2023-06-29T11:58:15.973Z,27.05
2023-06-29T12:01:18.227Z,27.18
2023-06-29T12:04:21.433Z,27.89
2023-06-29T12:07:35.298Z,28.06
2023-06-29T12:10:39.090Z,27.81
2023-06-29T12:13:46.263Z,27.32
2023-06-29T12:20:19.513Z,27.97
2023-06-29T12:23:25.125Z,28.18
2023-06-29T12:26:26.829Z,28.13
2023-06-29T12:29:31.768Z,28.16
2023-06-29T12:32:36.097Z,28.39
2023-06-29T12:35:38.362Z,28.45
2023-06-29T12:38:41.023Z,28.50
2023-06-29T12:41:42.721Z,27.94
2023-06-29T12:44:44.411Z,27.95
2023-06-29T12:47:46.527Z,28.39
2023-06-29T12:50:49.194Z,28.25
2023-06-29T12:53:52.146Z,27.86
2023-06-29T12:56:53.929Z,27.95
2023-06-29T13:00:07.329Z,28.26
2023-06-29T13:03:09.254Z,28.30
2023-06-29T13:06:11.097Z,28.00
2023-06-29T13:09:13.216Z,28.33
2023-06-29T13:12:15.554Z,28.65
2023-06-29T13:15:17.349Z,28.61
2023-06-29T13:18:19.199Z,28.03
2023-06-29T13:21:21.224Z,27.60
2023-06-29T13:24:23.472Z,28.05
2023-06-29T13:27:25.213Z,28.54
2023-06-29T13:30:27.520Z,28.77
2023-06-29T13:33:29.882Z,28.19
2023-06-29T13:36:32.914Z,27.96
2023-06-29T13:39:34.726Z,27.75
2023-06-29T13:42:36.711Z,27.61
2023-06-29T13:45:38.487Z,28.17
2023-06-29T13:48:40.650Z,28.69
2023-06-29T13:51:42.770Z,29.00
2023-06-29T13:54:44.888Z,28.94
2023-06-29T13:57:47.153Z,28.35
2023-06-29T14:00:48.788Z,27.87
2023-06-29T14:03:50.622Z,27.63
2023-06-29T14:06:52.808Z,27.67
2023-06-29T14:09:54.940Z,28.10
2023-06-29T14:12:57.082Z,28.30
2023-06-29T14:15:59.530Z,29.09
2023-06-29T14:19:01.287Z,29.47
2023-06-29T14:22:03.551Z,29.58
2023-06-29T14:25:07.236Z,28.72
2023-06-29T14:28:09.178Z,28.69
2023-06-29T14:31:11.453Z,28.56
2023-06-29T14:34:13.407Z,28.61
2023-06-29T14:37:16.266Z,28.77
2023-06-29T14:40:17.992Z,29.37
2023-06-29T14:43:22.490Z,29.66
2023-06-29T14:46:34.015Z,29.12
2023-06-29T14:49:35.726Z,29.50
2023-06-29T14:52:39.718Z,29.63
2023-06-29T14:55:44.632Z,29.98
2023-06-29T14:58:47.613Z,29.60
2023-06-29T15:01:49.452Z,29.77
2023-06-29T15:04:53.091Z,29.86
2023-06-29T15:07:55.091Z,30.04
2023-06-29T15:10:56.739Z,29.94
2023-06-29T15:13:58.414Z,29.43
2023-06-29T15:17:00.093Z,29.12
2023-06-29T15:20:01.819Z,29.67
2023-06-29T15:23:03.510Z,29.79
2023-06-29T15:26:05.583Z,29.68
2023-06-29T15:29:07.199Z,29.57
2023-06-29T15:32:11.802Z,29.60
2023-06-29T15:35:13.601Z,29.37
2023-06-29T15:38:15.254Z,28.75
2023-06-29T15:41:17.296Z,28.78
2023-06-29T15:44:19.168Z,28.82
2023-06-29T15:47:20.940Z,28.99
2023-06-29T15:50:22.581Z,29.03
2023-06-29T15:53:24.241Z,28.96
2023-06-29T15:56:26.512Z,28.66
2023-06-29T15:59:28.101Z,28.57
2023-06-29T16:02:29.935Z,28.68
2023-06-29T16:05:33.072Z,28.66
2023-06-29T16:08:34.925Z,28.52
2023-06-29T16:11:36.584Z,28.41
2023-06-29T16:14:38.306Z,28.26
2023-06-29T16:17:40.113Z,28.08
2023-06-29T16:20:42.180Z,27.92
2023-06-29T16:23:43.841Z,27.58
2023-06-29T16:26:47.896Z,27.23
2023-06-29T16:29:49.622Z,27.01
2023-06-29T16:32:51.698Z,26.83
2023-06-29T16:35:53.726Z,26.83
2023-06-29T16:38:55.482Z,26.70
2023-06-29T16:41:57.433Z,26.60
2023-06-29T16:44:59.678Z,26.49
2023-06-29T16:48:01.311Z,26.48
2023-06-29T16:51:03.110Z,26.41
2023-06-29T16:54:04.775Z,26.36
2023-06-29T16:57:06.982Z,26.24
2023-06-29T17:00:09.515Z,26.28
2023-06-29T17:03:11.950Z,26.27
2023-06-29T17:06:13.655Z,26.24
2023-06-29T17:09:15.470Z,26.19
2023-06-29T17:12:17.503Z,26.13
2023-06-29T17:15:20.307Z,26.13
2023-06-29T17:18:22.664Z,26.11
2023-06-29T17:21:24.440Z,26.06
2023-06-29T17:24:26.790Z,25.96
2023-06-29T17:27:28.601Z,25.96
2023-06-29T17:30:30.323Z,25.91
2023-06-29T17:33:44.826Z,25.88
2023-06-29T17:36:53.527Z,25.84
2023-06-29T17:39:55.169Z,25.79
2023-06-29T17:42:56.849Z,25.76
2023-06-29T17:45:58.623Z,25.72
2023-06-29T17:49:00.274Z,25.63
2023-06-29T17:52:01.872Z,25.58
2023-06-29T17:55:04.454Z,25.55
2023-06-29T17:58:06.642Z,25.50
2023-06-29T18:01:08.585Z,25.45
2023-06-29T18:04:10.573Z,25.42
2023-06-29T18:07:12.664Z,25.36
2023-06-29T18:10:14.372Z,25.33
2023-06-29T18:13:19.186Z,25.26
2023-06-29T18:16:20.953Z,25.21
2023-06-29T18:19:22.750Z,25.10
2023-06-29T18:22:24.433Z,25.08
2023-06-29T18:25:26.330Z,25.04
2023-06-29T18:28:28.416Z,24.99
2023-06-29T18:31:30.305Z,24.95
2023-06-29T18:34:32.203Z,24.87
2023-06-29T18:37:33.960Z,24.81
2023-06-29T18:40:36.422Z,24.79
2023-06-29T18:43:38.214Z,24.72
2023-06-29T18:46:41.249Z,24.64
2023-06-29T18:49:51.289Z,24.57
2023-06-29T18:52:54.318Z,24.48
2023-06-29T18:55:56.980Z,24.39
2023-06-29T18:58:58.726Z,24.37
2023-06-29T19:02:01.086Z,24.31
2023-06-29T19:05:02.897Z,24.26
2023-06-29T19:08:05.240Z,24.21
2023-06-29T19:11:06.905Z,24.14
2023-06-29T19:14:08.526Z,24.08
2023-06-29T19:17:10.549Z,24.05
2023-06-29T19:20:12.682Z,23.98
2023-06-29T19:23:14.359Z,23.94
2023-06-29T19:26:16.420Z,23.91
2023-06-29T19:29:18.264Z,23.85
2023-06-29T19:32:20.844Z,23.80
2023-06-29T19:35:22.934Z,23.76
2023-06-29T19:38:24.660Z,23.70
2023-06-29T19:41:26.251Z,23.66
2023-06-29T19:44:28.022Z,23.62
2023-06-29T19:47:29.793Z,23.57
2023-06-29T19:50:31.565Z,23.46
2023-06-29T19:53:33.292Z,23.40
2023-06-29T19:56:34.972Z,23.34
2023-06-29T19:59:36.825Z,23.29
2023-06-29T20:02:38.896Z,23.19
2023-06-29T20:05:41.493Z,23.10
2023-06-29T20:08:44.480Z,23.06
2023-06-29T20:11:46.271Z,23.03
2023-06-29T20:14:48.095Z,23.01
2023-06-29T20:17:50.174Z,22.95
2023-06-29T20:20:52.652Z,22.86
2023-06-29T20:23:54.469Z,22.81
2023-06-29T20:26:56.487Z,22.73
2023-06-29T20:29:58.592Z,22.67
2023-06-29T20:33:00.409Z,22.67
2023-06-29T20:36:02.525Z,22.67
2023-06-29T20:39:04.279Z,22.68
2023-06-29T20:42:06.379Z,22.66
2023-06-29T20:45:09.326Z,22.63
2023-06-29T20:48:11.719Z,22.60
2023-06-29T20:51:18.141Z,22.57
2023-06-29T20:54:20.236Z,22.51
2023-06-29T20:57:22.816Z,22.44
2023-06-29T21:00:24.702Z,22.43
2023-06-29T21:03:26.982Z,22.38
2023-06-29T21:06:28.946Z,22.31
2023-06-29T21:09:31.120Z,22.29
2023-06-29T21:12:33.379Z,22.28
2023-06-29T21:15:35.112Z,22.06
2023-06-29T21:18:37.129Z,22.28
2023-06-29T21:21:39.534Z,22.22
2023-06-29T21:24:41.773Z,22.14
2023-06-29T21:27:43.653Z,22.09
2023-06-29T21:30:45.424Z,22.04
2023-06-29T21:33:47.489Z,22.04
2023-06-29T21:36:49.798Z,22.01
2023-06-29T21:39:51.497Z,21.99
2023-06-29T21:42:53.249Z,21.97
2023-06-29T21:45:54.905Z,21.93
2023-06-29T21:51:58.241Z,21.87
2023-06-29T21:54:59.925Z,21.84
2023-06-29T21:58:02.268Z,21.80
2023-06-29T22:01:03.985Z,21.73
2023-06-29T22:04:05.880Z,21.75
2023-06-29T22:10:13.660Z,21.71
2023-06-29T22:13:15.681Z,21.68
2023-06-29T22:16:17.526Z,21.64
2023-06-29T22:19:19.368Z,21.61
2023-06-29T22:22:21.000Z,21.61
2023-06-29T22:25:22.804Z,21.61
2023-06-29T22:28:25.013Z,21.58
2023-06-29T22:31:27.992Z,21.52
2023-06-29T22:34:29.820Z,21.51
2023-06-29T22:37:31.499Z,21.51
2023-06-29T22:40:33.541Z,21.47
2023-06-29T22:43:35.485Z,21.43
2023-06-29T22:46:37.605Z,21.42
2023-06-29T22:49:42.258Z,21.39
2023-06-29T22:52:44.704Z,21.37
2023-06-29T22:55:46.655Z,21.35
2023-06-29T22:59:06.167Z,21.38
2023-06-29T23:02:08.156Z,21.37
2023-06-29T23:05:10.278Z,21.32
2023-06-29T23:08:12.091Z,21.34
2023-06-29T23:11:13.771Z,21.33
2023-06-29T23:14:15.686Z,21.31
2023-06-29T23:17:17.984Z,21.27
2023-06-29T23:20:19.760Z,21.24
2023-06-29T23:23:21.451Z,21.19
2023-06-29T23:26:24.068Z,21.14
2023-06-29T23:29:25.815Z,21.14
2023-06-29T23:32:27.950Z,21.12
2023-06-29T23:35:29.649Z,21.10
2023-06-29T23:38:31.307Z,21.05
2023-06-29T23:41:32.971Z,21.01
2023-06-29T23:44:37.609Z,20.96
2023-06-29T23:47:39.929Z,20.95
2023-06-29T23:50:41.952Z,20.89
2023-06-29T23:53:43.567Z,20.85
2023-06-29T23:56:45.258Z,20.80
2023-06-29T23:59:47.729Z,20.79
